createdAt,value
2018-10-03T00:04:43.551Z,14.00
2018-10-03T00:09:47.242Z,14.10
2018-10-03T00:12:18.305Z,14.10
2018-10-03T00:14:49.008Z,14.10
2018-10-03T00:17:23.550Z,14.10
2018-10-03T00:19:53.554Z,14.10
2018-10-03T00:22:23.396Z,14.10
2018-10-03T00:24:53.816Z,14.00
2018-10-03T00:27:23.888Z,14.00
2018-10-03T00:29:53.493Z,14.00
2018-10-03T00:32:22.933Z,14.00
2018-10-03T00:34:56.845Z,13.80
2018-10-03T00:37:26.447Z,13.80
2018-10-03T00:39:56.197Z,13.80
2018-10-03T00:42:26.193Z,13.80
2018-10-03T00:44:57.879Z,13.80
2018-10-03T00:47:31.332Z,13.80
2018-10-03T00:50:04.800Z,13.80
2018-10-03T00:52:34.414Z,13.80
2018-10-03T00:55:04.134Z,13.80
2018-10-03T01:00:04.369Z,13.80
2018-10-03T01:02:34.708Z,13.80
2018-10-03T01:05:04.922Z,13.80
2018-10-03T01:07:34.654Z,13.80
2018-10-03T01:10:04.211Z,13.80
2018-10-03T01:12:33.927Z,13.00
2018-10-03T01:15:03.429Z,13.90
2018-10-03T01:17:33.076Z,13.90
2018-10-03T01:20:03.360Z,13.90
2018-10-03T01:22:33.148Z,13.90
2018-10-03T01:25:03.025Z,13.90
2018-10-03T01:27:32.589Z,14.00
2018-10-03T01:30:03.749Z,14.00
2018-10-03T01:32:33.337Z,14.00
2018-10-03T01:35:02.894Z,14.10
2018-10-03T01:40:01.473Z,14.10
2018-10-03T01:42:31.753Z,14.10
2018-10-03T01:45:01.740Z,14.10
2018-10-03T01:47:31.441Z,14.10
2018-10-03T01:50:01.593Z,14.10
2018-10-03T01:52:31.051Z,14.20
2018-10-03T01:55:00.510Z,14.20
2018-10-03T01:57:30.511Z,14.20
2018-10-03T01:59:59.992Z,14.20
2018-10-03T02:02:29.484Z,14.20
2018-10-03T02:04:59.009Z,14.20
2018-10-03T02:07:28.463Z,14.20
2018-10-03T02:12:27.699Z,14.20
2018-10-03T02:14:57.530Z,14.30
2018-10-03T02:17:27.037Z,14.20
2018-10-03T02:19:56.534Z,14.10
2018-10-03T02:22:25.901Z,14.10
2018-10-03T02:24:55.323Z,14.20
2018-10-03T02:27:25.007Z,14.20
2018-10-03T02:29:54.849Z,14.10
2018-10-03T02:32:24.360Z,14.10
2018-10-03T02:37:22.807Z,14.10
2018-10-03T02:39:52.272Z,14.10
2018-10-03T02:42:21.812Z,14.00
2018-10-03T02:44:51.694Z,14.00
2018-10-03T02:47:21.146Z,13.90
2018-10-03T02:49:50.617Z,13.90
2018-10-03T02:52:20.655Z,13.90
2018-10-03T02:54:50.153Z,13.90
2018-10-03T02:57:19.610Z,13.90
2018-10-03T02:59:49.095Z,13.90
2018-10-03T03:02:20.009Z,13.90
2018-10-03T03:04:49.478Z,13.90
2018-10-03T03:07:18.989Z,13.40
2018-10-03T03:09:48.448Z,13.80
2018-10-03T03:15:18.923Z,13.90
2018-10-03T03:17:48.513Z,13.90
2018-10-03T03:20:17.971Z,13.90
2018-10-03T03:22:47.888Z,13.90
2018-10-03T03:25:17.547Z,13.90
2018-10-03T03:27:47.056Z,13.90
2018-10-03T03:30:20.554Z,13.90
2018-10-03T03:32:50.141Z,13.90
2018-10-03T03:35:19.604Z,13.90
2018-10-03T03:40:18.388Z,13.90
2018-10-03T03:42:48.004Z,13.90
2018-10-03T03:45:17.971Z,13.90
2018-10-03T03:47:47.402Z,14.00
2018-10-03T03:50:16.884Z,13.90
2018-10-03T03:55:17.210Z,13.90
2018-10-03T03:57:47.455Z,13.80
2018-10-03T04:02:46.456Z,13.80
2018-10-03T04:07:45.701Z,13.80
2018-10-03T04:10:15.174Z,13.80
2018-10-03T04:12:44.954Z,13.80
2018-10-03T04:15:14.424Z,13.80
2018-10-03T04:17:44.256Z,13.80
2018-10-03T04:20:13.765Z,13.80
2018-10-03T04:22:43.305Z,13.80
2018-10-03T04:25:12.981Z,13.80
2018-10-03T04:27:42.481Z,13.70
2018-10-03T04:30:12.905Z,13.70
2018-10-03T04:32:42.561Z,13.70
2018-10-03T04:35:12.535Z,13.60
2018-10-03T04:37:42.143Z,13.70
2018-10-03T04:40:11.769Z,13.70
2018-10-03T04:42:41.307Z,13.70
2018-10-03T04:45:10.858Z,13.70
2018-10-03T04:50:09.888Z,13.70
2018-10-03T04:52:39.392Z,13.70
2018-10-03T04:55:39.646Z,13.70
2018-10-03T04:58:09.635Z,13.70
2018-10-03T05:00:39.164Z,13.60
2018-10-03T05:08:07.934Z,13.70
2018-10-03T05:10:37.443Z,13.60
2018-10-03T05:13:07.056Z,13.60
2018-10-03T05:15:36.686Z,13.60
2018-10-03T05:18:06.571Z,13.60
2018-10-03T05:20:36.165Z,13.50
2018-10-03T05:23:05.844Z,13.50
2018-10-03T05:25:35.367Z,13.50
2018-10-03T05:28:04.849Z,13.50
2018-10-03T05:30:35.197Z,13.40
2018-10-03T05:35:33.812Z,13.40
2018-10-03T05:40:32.657Z,13.40
2018-10-03T05:43:02.130Z,13.40
2018-10-03T05:45:31.695Z,13.40
2018-10-03T05:50:30.421Z,13.30
2018-10-03T05:55:28.817Z,13.30
2018-10-03T05:57:58.325Z,13.30
2018-10-03T06:00:27.857Z,13.30
2018-10-03T06:02:57.483Z,13.30
2018-10-03T06:07:56.431Z,13.20
2018-10-03T06:10:25.965Z,13.20
2018-10-03T06:12:55.985Z,13.20
2018-10-03T06:15:28.550Z,13.20
2018-10-03T06:20:27.228Z,13.20
2018-10-03T06:25:26.154Z,13.20
2018-10-03T06:30:24.563Z,13.80
2018-10-03T06:32:54.103Z,13.20
2018-10-03T06:35:24.016Z,13.20
2018-10-03T06:40:22.597Z,13.20
2018-10-03T06:42:52.695Z,13.30
2018-10-03T06:45:22.284Z,13.20
2018-10-03T06:47:52.001Z,13.30
2018-10-03T06:50:21.670Z,13.20
2018-10-03T06:52:51.212Z,13.30
2018-10-03T07:02:49.566Z,13.30
2018-10-03T07:05:19.108Z,13.30
2018-10-03T07:07:48.642Z,13.30
2018-10-03T07:10:20.475Z,13.40
2018-10-03T07:12:50.049Z,13.40
2018-10-03T07:17:50.120Z,13.50
2018-10-03T07:20:20.725Z,13.50
2018-10-03T07:22:50.475Z,13.50
2018-10-03T07:25:21.932Z,13.50
2018-10-03T07:30:20.546Z,13.60
2018-10-03T07:32:50.638Z,13.60
2018-10-03T07:37:49.160Z,13.60
2018-10-03T07:40:18.894Z,13.60
2018-10-03T07:42:49.044Z,13.60
2018-10-03T07:45:18.732Z,13.60
2018-10-03T07:47:48.631Z,13.70
2018-10-03T07:50:19.565Z,13.80
2018-10-03T07:52:49.899Z,13.80
2018-10-03T07:55:20.497Z,13.90
2018-10-03T07:57:52.657Z,13.90
2018-10-03T08:00:28.359Z,13.90
2018-10-03T08:03:00.558Z,13.90
2018-10-03T08:05:30.609Z,14.00
2018-10-03T08:08:02.249Z,13.90
2018-10-03T08:10:31.870Z,14.00
2018-10-03T08:13:01.442Z,14.00
2018-10-03T08:15:31.990Z,14.00
2018-10-03T08:20:32.948Z,14.00
2018-10-03T08:23:15.492Z,14.10
2018-10-03T08:28:31.621Z,14.10
2018-10-03T08:31:01.756Z,14.20
2018-10-03T08:33:32.697Z,14.30
2018-10-03T08:38:33.614Z,14.50
2018-10-03T08:41:05.310Z,14.60
2018-10-03T08:43:36.669Z,14.60
2018-10-03T08:46:06.500Z,14.70
2018-10-03T08:48:38.731Z,14.70
2018-10-03T08:58:36.927Z,15.20
2018-10-03T09:01:06.482Z,15.30
2018-10-03T09:03:36.488Z,15.40
2018-10-03T09:06:06.562Z,15.50
2018-10-03T09:08:36.732Z,15.40
2018-10-03T09:11:06.801Z,15.40
2018-10-03T09:13:38.802Z,15.40
2018-10-03T09:18:37.919Z,15.50
2018-10-03T09:21:09.206Z,15.40
2018-10-03T09:23:39.777Z,15.40
2018-10-03T09:26:09.654Z,15.40
2018-10-03T09:31:08.836Z,15.10
2018-10-03T09:33:38.998Z,15.10
2018-10-03T09:38:38.142Z,15.10
2018-10-03T09:43:37.548Z,15.10
2018-10-03T09:46:07.380Z,15.00
2018-10-03T09:48:37.576Z,15.00
2018-10-03T09:51:07.254Z,15.00
2018-10-03T09:53:37.022Z,15.10
2018-10-03T09:56:09.415Z,15.20
2018-10-03T09:58:39.025Z,15.30
2018-10-03T10:01:41.553Z,15.40
2018-10-03T10:04:12.841Z,15.50
2018-10-03T10:06:42.989Z,15.50
2018-10-03T10:09:12.670Z,15.50
2018-10-03T10:11:42.207Z,15.50
2018-10-03T10:14:12.121Z,15.70
2018-10-03T10:16:41.723Z,15.90
2018-10-03T10:19:11.221Z,16.00
2018-10-03T10:21:41.141Z,15.90
2018-10-03T10:24:11.251Z,15.90
2018-10-03T10:26:40.880Z,15.90
2018-10-03T10:29:10.877Z,15.80
2018-10-03T10:31:40.427Z,15.70
2018-10-03T10:34:09.905Z,15.80
2018-10-03T10:36:40.391Z,15.80
2018-10-03T10:39:13.417Z,15.70
2018-10-03T10:41:43.668Z,15.50
2018-10-03T10:44:13.822Z,15.20
2018-10-03T10:46:43.552Z,15.10
2018-10-03T10:49:13.305Z,15.00
2018-10-03T10:51:43.077Z,15.00
2018-10-03T10:54:12.949Z,15.10
2018-10-03T10:56:43.599Z,15.20
2018-10-03T11:01:46.739Z,15.30
2018-10-03T11:09:14.646Z,15.80
2018-10-03T11:11:44.962Z,16.00
2018-10-03T11:14:15.121Z,16.10
2018-10-03T11:16:46.875Z,16.20
2018-10-03T11:21:48.259Z,16.20
2018-10-03T11:24:19.117Z,16.30
2018-10-03T11:26:50.259Z,16.30
2018-10-03T11:29:27.321Z,16.30
2018-10-03T11:31:57.557Z,16.30
2018-10-03T11:34:28.811Z,16.40
2018-10-03T11:39:28.741Z,16.40
2018-10-03T11:44:27.674Z,16.30
2018-10-03T11:46:58.106Z,16.50
2018-10-03T11:51:58.616Z,17.40
2018-10-03T11:54:29.742Z,18.00
2018-10-03T11:56:59.449Z,18.30
2018-10-03T11:59:29.301Z,18.40
2018-10-03T12:01:58.876Z,18.70
2018-10-03T12:04:29.126Z,18.80
2018-10-03T12:06:59.544Z,18.80
2018-10-03T12:09:29.098Z,18.60
2018-10-03T12:11:58.765Z,18.60
2018-10-03T12:16:57.906Z,18.30
2018-10-03T12:19:27.425Z,18.00
2018-10-03T12:21:57.287Z,17.70
2018-10-03T12:24:26.777Z,17.40
2018-10-03T12:26:56.316Z,17.10
2018-10-03T12:34:25.362Z,16.30
2018-10-03T12:39:24.588Z,16.00
2018-10-03T12:41:54.786Z,15.80
2018-10-03T12:44:24.752Z,15.80
2018-10-03T12:46:54.245Z,15.70
2018-10-03T12:51:53.878Z,15.60
2018-10-03T12:54:23.725Z,15.60
2018-10-03T12:56:53.302Z,15.50
2018-10-03T12:59:24.472Z,15.40
2018-10-03T13:01:54.449Z,15.40
2018-10-03T13:04:24.719Z,15.40
2018-10-03T13:14:25.007Z,15.50
2018-10-03T13:21:54.657Z,15.50
2018-10-03T13:24:24.326Z,15.50
2018-10-03T13:26:54.137Z,15.40
2018-10-03T13:29:29.163Z,15.40
2018-10-03T13:31:59.893Z,15.40
2018-10-03T13:34:29.678Z,15.40
2018-10-03T13:44:28.158Z,16.20
2018-10-03T13:49:27.322Z,16.20
2018-10-03T13:51:58.211Z,16.20
2018-10-03T13:54:43.101Z,16.20
2018-10-03T13:59:43.497Z,16.10
2018-10-03T14:02:15.888Z,16.10
2018-10-03T14:07:14.928Z,16.10
2018-10-03T14:09:46.257Z,16.10
2018-10-03T14:12:16.263Z,16.10
2018-10-03T14:14:53.078Z,16.20
2018-10-03T14:17:30.805Z,16.20
2018-10-03T14:20:01.492Z,16.10
2018-10-03T14:22:32.871Z,16.20
2018-10-03T14:25:03.361Z,16.20
2018-10-03T14:32:34.980Z,16.20
2018-10-03T14:35:06.061Z,16.30
2018-10-03T14:37:36.272Z,16.40
2018-10-03T14:40:06.135Z,16.40
2018-10-03T14:47:43.226Z,16.40
2018-10-03T14:50:12.955Z,16.30
2018-10-03T14:52:45.275Z,16.30
2018-10-03T14:57:44.860Z,16.20
2018-10-03T15:00:15.997Z,16.10
2018-10-03T15:05:14.834Z,16.00
2018-10-03T15:15:13.082Z,15.80
2018-10-03T15:17:43.059Z,15.80
2018-10-03T15:20:12.906Z,15.70
2018-10-03T15:25:26.298Z,15.60
2018-10-03T15:28:00.568Z,15.60
2018-10-03T15:30:31.489Z,15.60
2018-10-03T15:33:02.120Z,15.60
2018-10-03T15:35:55.803Z,15.60
2018-10-03T15:38:27.243Z,15.60
2018-10-03T15:41:01.250Z,15.60
2018-10-03T15:43:31.270Z,15.50
2018-10-03T15:46:01.147Z,15.40
2018-10-03T15:51:23.375Z,15.40
2018-10-03T15:53:53.820Z,15.40
2018-10-03T15:56:46.645Z,15.30
2018-10-03T15:59:18.659Z,15.20
2018-10-03T16:01:49.796Z,15.30
2018-10-03T16:04:19.779Z,15.30
2018-10-03T16:06:49.363Z,15.30
2018-10-03T16:09:19.273Z,15.30
2018-10-03T16:11:48.754Z,15.30
2018-10-03T16:16:47.776Z,15.30
2018-10-03T16:21:46.460Z,15.40
2018-10-03T16:24:15.992Z,15.40
2018-10-03T16:26:46.101Z,15.40
2018-10-03T16:29:16.204Z,15.30
2018-10-03T16:31:46.972Z,15.40
2018-10-03T16:36:45.657Z,15.40
2018-10-03T16:39:15.364Z,15.40
2018-10-03T16:41:45.458Z,15.30
2018-10-03T16:44:14.907Z,15.20
2018-10-03T16:46:58.285Z,15.20
2018-10-03T16:51:57.048Z,15.10
2018-10-03T16:54:27.105Z,15.10
2018-10-03T16:56:56.724Z,15.10
2018-10-03T17:01:56.423Z,14.90
2018-10-03T17:04:26.513Z,14.90
2018-10-03T17:06:56.120Z,14.80
2018-10-03T17:11:57.078Z,14.60
2018-10-03T17:14:31.910Z,14.60
2018-10-03T17:17:02.993Z,14.50
2018-10-03T17:19:34.246Z,14.50
2018-10-03T17:22:04.562Z,14.50
2018-10-03T17:27:06.914Z,14.40
2018-10-03T17:32:06.605Z,14.40
2018-10-03T17:34:37.162Z,14.50
2018-10-03T17:37:06.694Z,14.50
2018-10-03T17:39:36.529Z,14.40
2018-10-03T17:42:07.143Z,14.40
2018-10-03T17:44:36.697Z,14.40
2018-10-03T17:47:06.804Z,14.40
2018-10-03T17:49:36.804Z,14.30
2018-10-03T17:52:06.444Z,14.20
2018-10-03T17:57:05.575Z,14.00
2018-10-03T18:02:10.432Z,13.80
2018-10-03T18:07:10.986Z,13.60
2018-10-03T18:12:10.145Z,13.40
2018-10-03T18:14:44.300Z,13.40
2018-10-03T18:17:14.604Z,13.50
2018-10-03T18:19:45.067Z,13.40
2018-10-03T18:24:46.203Z,13.50
2018-10-03T18:27:16.547Z,13.40
2018-10-03T18:34:45.705Z,13.40
2018-10-03T18:37:22.991Z,13.50
2018-10-03T18:43:07.261Z,13.40
2018-10-03T18:45:38.768Z,13.20
2018-10-03T18:50:37.369Z,13.00
2018-10-03T18:53:09.708Z,12.90
2018-10-03T18:55:41.660Z,12.70
2018-10-03T18:58:23.611Z,12.70
2018-10-03T19:00:56.334Z,12.60
2018-10-03T19:03:27.840Z,12.50
2018-10-03T19:05:58.787Z,12.50
2018-10-03T19:11:01.452Z,12.30
2018-10-03T19:13:31.815Z,12.30
2018-10-03T19:16:01.444Z,12.20
2018-10-03T19:18:31.625Z,12.10
2018-10-03T19:21:02.594Z,12.20
2018-10-03T19:23:32.354Z,12.20
2018-10-03T19:26:02.125Z,12.20
2018-10-03T19:28:31.832Z,12.30
2018-10-03T19:31:02.261Z,12.30
2018-10-03T19:33:32.717Z,12.30
2018-10-03T19:41:01.231Z,12.40
2018-10-03T19:43:31.478Z,12.40
2018-10-03T19:46:01.596Z,12.40
2018-10-03T19:48:33.220Z,12.40
2018-10-03T19:51:04.921Z,12.40
2018-10-03T19:53:36.003Z,12.40
2018-10-03T19:56:06.295Z,12.40
2018-10-03T19:58:36.703Z,12.30
2018-10-03T20:01:08.269Z,12.30
2018-10-03T20:03:38.921Z,12.30
2018-10-03T20:06:08.566Z,12.20
2018-10-03T20:08:39.195Z,12.30
2018-10-03T20:11:09.255Z,12.20
2018-10-03T20:13:38.932Z,12.20
2018-10-03T20:18:40.006Z,12.20
2018-10-03T20:21:09.666Z,12.20
2018-10-03T20:23:40.061Z,12.10
2018-10-03T20:33:41.661Z,12.10
2018-10-03T20:36:13.170Z,12.10
2018-10-03T20:38:45.625Z,12.10
2018-10-03T20:43:45.057Z,12.00
2018-10-03T20:46:15.089Z,12.00
2018-10-03T20:51:14.842Z,11.90
2018-10-03T20:53:46.176Z,11.80
2018-10-03T20:56:15.901Z,11.60
2018-10-03T20:58:45.357Z,11.50
2018-10-03T21:01:16.463Z,11.50
2018-10-03T21:03:46.453Z,11.50
2018-10-03T21:06:16.330Z,11.40
2018-10-03T21:08:46.015Z,11.40
2018-10-03T21:11:16.273Z,11.40
2018-10-03T21:16:15.318Z,11.50
2018-10-03T21:18:45.098Z,11.50
2018-10-03T21:21:15.295Z,11.50
2018-10-03T21:23:46.265Z,11.40
2018-10-03T21:26:16.050Z,11.40
2018-10-03T21:28:45.876Z,11.30
2018-10-03T21:31:16.225Z,11.40
2018-10-03T21:33:46.270Z,11.40
2018-10-03T21:36:20.120Z,11.30
2018-10-03T21:41:23.802Z,11.30
2018-10-03T21:46:23.270Z,11.10
2018-10-03T21:48:53.984Z,11.10
2018-10-03T21:53:53.798Z,11.00
2018-10-03T22:01:22.372Z,11.10
2018-10-03T22:03:52.948Z,11.10
2018-10-03T22:06:22.917Z,11.10
2018-10-03T22:11:22.519Z,11.10
2018-10-03T22:13:52.219Z,11.10
2018-10-03T22:16:23.734Z,11.00
2018-10-03T22:18:53.859Z,11.00
2018-10-03T22:21:23.463Z,10.90
2018-10-03T22:23:53.764Z,10.90
2018-10-03T22:26:23.420Z,10.90
2018-10-03T22:28:52.973Z,9.90
2018-10-03T22:31:23.566Z,10.90
2018-10-03T22:33:53.284Z,10.90
2018-10-03T22:36:23.378Z,10.90
2018-10-03T22:41:23.218Z,10.90
2018-10-03T22:43:53.105Z,10.90
2018-10-03T22:46:22.685Z,10.80
2018-10-03T22:48:52.369Z,10.90
2018-10-03T22:51:22.428Z,10.90
2018-10-03T23:01:20.034Z,10.90
2018-10-03T23:03:51.394Z,10.80
2018-10-03T23:08:50.495Z,10.90
2018-10-03T23:11:20.395Z,10.90
2018-10-03T23:16:19.639Z,10.80
2018-10-03T23:18:51.025Z,10.70
2018-10-03T23:21:21.197Z,10.50
2018-10-03T23:23:50.749Z,10.30
2018-10-03T23:28:50.217Z,10.10
2018-10-03T23:33:48.705Z,9.90
2018-10-03T23:41:18.203Z,9.80
2018-10-03T23:43:48.284Z,9.70
2018-10-03T23:46:18.583Z,9.70
2018-10-03T23:48:48.813Z,9.60
2018-10-03T23:51:18.842Z,9.60
2018-10-03T23:56:17.586Z,9.70
2018-10-03T23:58:47.251Z,9.70
